Time,TemperatureF,DewpointF,PressureIn,WindDirection,WindDirectionDegrees,WindSpeedMPH,WindSpeedGustMPH,Humidity,HourlyPrecipIn,Conditions,Clouds,dailyrainin,SolarRadiationWatts/m^2,SoftwareType,DateUTC
2014-07-11 00:01:00,63.6,50.8,29.87,SE,126,1.1,1.1,63,0.00,CLR,SCT,0.00,0.0,WeatherDisplay:10.37,2014-07-11 07:01:00,
2014-07-11 00:06:00,63.6,51.2,29.87,SE,126,1.1,1.1,64,0.00,CLR,SCT,0.00,0.0,WeatherDisplay:10.37,2014-07-11 07:06:00,
2014-07-11 00:11:00,63.6,50.8,29.87,SE,126,0.0,0.0,63,0.00,CLR,SCT,0.00,0.0,WeatherDisplay:10.37,2014-07-11 07:11:00,
2014-07-11 00:16:00,63.7,50.9,29.87,SE,126,1.1,1.1,63,0.00,CLR,SCT,0.00,0.0,WeatherDisplay:10.37,2014-07-11 07:16:00,
2014-07-11 00:21:00,63.8,50.5,29.87,SE,126,0.0,0.0,62,0.00,CLR,SCT,0.00,0.0,WeatherDisplay:10.37,2014-07-11 07:21:00,
2014-07-11 00:26:00,63.9,51.1,29.87,SE,126,0.0,0.0,63,0.00,CLR,SCT,0.00,0.0,WeatherDisplay:10.37,2014-07-11 07:26:00,
2014-07-11 00:31:00,63.8,50.5,29.87,SE,126,1.1,1.1,62,0.00,CLR,SCT,0.00,0.0,WeatherDisplay:10.37,2014-07-11 07:31:00,
2014-07-11 00:36:00,63.8,50.5,29.87,SE,126,0.0,0.0,62,0.00,CLR,SCT,0.00,0.0,WeatherDisplay:10.37,2014-07-11 07:36:00,
2014-07-11 00:41:00,63.8,51.0,29.87,SE,126,1.1,1.1,63,0.00,CLR,SCT,0.00,0.0,WeatherDisplay:10.37,2014-07-11 07:41:00,
2014-07-11 00:46:00,63.8,50.5,29.87,SE,126,1.0,1.0,62,0.00,CLR,SCT,0.00,0.0,WeatherDisplay:10.37,2014-07-11 07:46:00,
2014-07-11 00:51:00,63.8,51.0,29.87,SE,126,1.1,1.1,63,0.00,CLR,SCT,0.00,0.0,WeatherDisplay:10.37,2014-07-11 07:51:00,
2014-07-11 00:56:00,63.7,50.4,29.87,SE,126,1.0,1.0,62,0.00,CLR,SCT,0.00,0.0,WeatherDisplay:10.37,2014-07-11 07:56:00,
2014-07-11 01:01:00,63.8,51.0,29.87,SE,126,0.0,0.0,63,0.00,CLR,SCT,0.00,0.0,WeatherDisplay:10.37,2014-07-11 08:01:00,
2014-07-11 01:06:00,63.8,50.5,29.87,SE,126,1.1,1.1,62,0.00,CLR,SCT,0.00,0.0,WeatherDisplay:10.37,2014-07-11 08:06:00,
2014-07-11 01:11:00,64.0,50.7,29.87,ENE,64,2.3,2.3,62,0.00,CLR,SCT,0.00,0.0,WeatherDisplay:10.37,2014-07-11 08:11:00,
2014-07-11 01:16:00,64.2,50.5,29.87,ENE,64,1.1,0.0,61,0.00,CLR,SCT,0.00,0.0,WeatherDisplay:10.37,2014-07-11 08:16:00,
2014-07-11 01:21:00,64.2,50.9,29.87,ENE,65,1.1,0.0,62,0.00,CLR,SCT,0.00,0.0,WeatherDisplay:10.37,2014-07-11 08:21:00,
2014-07-11 01:26:00,64.2,50.9,29.87,ENE,65,1.0,1.0,62,0.00,CLR,SCT,0.00,0.0,WeatherDisplay:10.37,2014-07-11 08:26:00,
2014-07-11 01:31:00,64.2,50.9,29.87,ENE,65,1.0,0.0,62,0.00,CLR,SCT,0.00,0.0,WeatherDisplay:10.37,2014-07-11 08:31:00,
2014-07-11 01:36:00,64.2,50.9,29.87,ENE,67,2.3,2.3,62,0.00,CLR,SCT,0.00,0.0,WeatherDisplay:10.37,2014-07-11 08:36:00,
2014-07-11 01:41:00,64.2,50.9,29.87,ENE,67,0.0,0.0,62,0.00,CLR,SCT,0.00,0.0,WeatherDisplay:10.37,2014-07-11 08:41:00,
2014-07-11 01:46:00,64.2,50.9,29.86,ENE,67,0.0,0.0,62,0.00,CLR,SCT,0.00,0.0,WeatherDisplay:10.37,2014-07-11 08:46:00,
2014-07-11 01:51:00,64.2,50.5,29.86,ENE,65,2.3,2.3,61,0.00,CLR,SCT,0.00,0.0,WeatherDisplay:10.37,2014-07-11 08:51:00,
2014-07-11 01:56:00,64.2,50.9,29.86,ENE,65,1.1,1.1,62,0.00,CLR,SCT,0.00,0.0,WeatherDisplay:10.37,2014-07-11 08:56:00,
2014-07-11 02:01:00,64.2,50.5,29.87,ENE,65,2.3,2.3,61,0.00,CLR,SCT,0.00,0.0,WeatherDisplay:10.37,2014-07-11 09:01:00,
2014-07-11 02:06:00,64.1,51.2,29.87,ENE,65,1.1,1.1,63,0.00,CLR,SCT,0.00,0.0,WeatherDisplay:10.37,2014-07-11 09:06:00,
2014-07-11 02:11:00,64.1,51.2,29.87,ENE,65,0.0,0.0,63,0.00,CLR,SCT,0.00,0.0,WeatherDisplay:10.37,2014-07-11 09:11:00,
2014-07-11 02:16:00,64.0,51.1,29.87,ENE,65,0.0,0.0,63,0.00,CLR,SCT,0.00,0.0,WeatherDisplay:10.37,2014-07-11 09:16:00,
2014-07-11 02:21:00,63.9,51.1,29.87,ENE,65,1.1,1.1,63,0.00,CLR,SCT,0.00,0.0,WeatherDisplay:10.37,2014-07-11 09:21:00,
2014-07-11 02:26:00,63.9,51.5,29.87,ENE,65,1.1,1.1,64,0.00,CLR,SCT,0.00,0.0,WeatherDisplay:10.37,2014-07-11 09:26:00,
2014-07-11 02:31:00,63.8,51.4,29.87,ENE,65,2.3,2.3,64,0.00,CLR,SCT,0.00,0.0,WeatherDisplay:10.37,2014-07-11 09:31:00,
2014-07-11 02:36:00,63.9,51.5,29.87,ENE,65,1.1,0.0,64,0.00,CLR,SCT,0.00,0.0,WeatherDisplay:10.37,2014-07-11 09:36:00,
2014-07-11 02:41:00,63.9,51.5,29.87,ENE,65,0.0,0.0,64,0.00,CLR,SCT,0.00,0.0,WeatherDisplay:10.37,2014-07-11 09:41:00,
2014-07-11 02:46:00,63.9,51.9,29.87,ENE,65,1.1,1.1,65,0.00,CLR,SCT,0.00,0.0,WeatherDisplay:10.37,2014-07-11 09:46:00,
2014-07-11 02:51:00,63.8,51.4,29.87,ENE,65,2.3,2.3,64,0.00,CLR,SCT,0.00,0.0,WeatherDisplay:10.37,2014-07-11 09:51:00,
2014-07-11 02:56:00,63.8,51.4,29.87,ENE,65,2.3,2.3,64,0.00,CLR,SCT,0.00,0.0,WeatherDisplay:10.37,2014-07-11 09:56:00,
2014-07-11 03:01:00,63.9,51.5,29.88,ENE,65,1.1,1.1,64,0.00,CLR,SCT,0.00,0.0,WeatherDisplay:10.37,2014-07-11 10:01:00,
2014-07-11 03:06:00,64.0,51.1,29.88,ENE,65,2.0,2.0,63,0.00,CLR,SCT,0.00,0.0,WeatherDisplay:10.37,2014-07-11 10:06:00,
2014-07-11 03:11:00,64.0,51.1,29.87,ENE,65,0.0,0.0,63,0.00,CLR,SCT,0.00,0.0,WeatherDisplay:10.37,2014-07-11 10:11:00,
2014-07-11 03:16:00,64.0,51.6,29.88,ENE,66,2.3,2.3,64,0.00,CLR,SCT,0.00,0.0,WeatherDisplay:10.37,2014-07-11 10:16:00,
2014-07-11 03:21:00,64.0,51.6,29.88,ENE,66,2.3,0.0,64,0.00,CLR,SCT,0.00,0.0,WeatherDisplay:10.37,2014-07-11 10:21:00,
2014-07-11 03:26:00,63.9,51.5,29.88,ENE,67,1.0,1.0,64,0.00,CLR,SCT,0.00,0.0,WeatherDisplay:10.37,2014-07-11 10:26:00,
2014-07-11 03:31:00,64.0,51.6,29.88,ENE,67,1.1,1.1,64,0.00,CLR,SCT,0.00,0.0,WeatherDisplay:10.37,2014-07-11 10:31:00,
2014-07-11 03:36:00,64.1,51.7,29.88,ENE,67,0.0,0.0,64,0.00,CLR,SCT,0.00,0.0,WeatherDisplay:10.37,2014-07-11 10:36:00,
2014-07-11 03:41:00,64.1,51.7,29.88,ENE,67,2.3,2.3,64,0.00,CLR,SCT,0.00,0.0,WeatherDisplay:10.37,2014-07-11 10:41:00,
2014-07-11 03:46:00,64.0,52.0,29.88,ENE,67,0.0,0.0,65,0.00,CLR,SCT,0.00,0.0,WeatherDisplay:10.37,2014-07-11 10:46:00,
2014-07-11 03:51:00,64.0,52.0,29.88,ENE,67,0.0,0.0,65,0.00,CLR,SCT,0.00,0.0,WeatherDisplay:10.37,2014-07-11 10:51:00,
2014-07-11 03:56:00,64.0,52.4,29.88,ENE,67,0.0,0.0,66,0.00,CLR,SCT,0.00,0.0,WeatherDisplay:10.37,2014-07-11 10:56:00,
2014-07-11 04:01:00,63.9,53.9,29.88,ENE,67,2.3,2.3,70,0.00,CLR,SCT,0.00,0.0,WeatherDisplay:10.37,2014-07-11 11:01:00,
2014-07-11 04:06:00,63.6,54.4,29.88,ENE,67,1.1,0.0,72,0.00,CLR,SCT,0.00,0.0,WeatherDisplay:10.37,2014-07-11 11:06:00,
2014-07-11 04:11:00,63.2,55.1,29.88,ENE,67,2.3,2.3,75,0.00,CLR,SCT,0.00,0.0,WeatherDisplay:10.37,2014-07-11 11:11:00,
2014-07-11 04:16:00,62.6,55.3,29.88,ESE,112,1.1,0.0,77,0.00,CLR,SCT,0.00,0.0,WeatherDisplay:10.37,2014-07-11 11:16:00,
2014-07-11 04:21:00,62.3,55.7,29.88,ESE,113,2.3,2.3,79,0.00,CLR,SCT,0.00,0.0,WeatherDisplay:10.37,2014-07-11 11:21:00,
2014-07-11 04:26:00,61.9,55.3,29.88,ESE,113,2.3,2.3,79,0.00,CLR,SCT,0.00,0.0,WeatherDisplay:10.37,2014-07-11 11:26:00,
2014-07-11 04:31:00,61.6,55.7,29.88,ESE,113,2.3,2.3,81,0.00,CLR,SCT,0.00,0.0,WeatherDisplay:10.37,2014-07-11 11:31:00,
2014-07-11 04:36:00,61.4,55.2,29.88,ESE,113,1.1,1.1,80,0.00,CLR,SCT,0.00,0.0,WeatherDisplay:10.37,2014-07-11 11:36:00,
2014-07-11 04:41:00,61.2,55.0,29.88,ESE,113,1.1,0.0,80,0.00,CLR,SCT,0.00,0.0,WeatherDisplay:10.37,2014-07-11 11:41:00,
2014-07-11 04:46:00,61.2,54.6,29.88,ESE,113,0.0,0.0,79,0.00,CLR,SCT,0.00,0.0,WeatherDisplay:10.37,2014-07-11 11:46:00,
2014-07-11 04:51:00,61.1,54.5,29.88,ESE,115,3.5,3.5,79,0.00,CLR,SCT,0.00,0.0,WeatherDisplay:10.37,2014-07-11 11:51:00,
2014-07-11 04:56:00,60.9,54.0,29.88,ESE,117,0.0,0.0,78,0.00,CLR,SCT,0.00,0.0,WeatherDisplay:10.37,2014-07-11 11:56:00,
2014-07-11 05:01:00,60.8,53.9,29.88,ESE,117,0.0,0.0,78,0.00,CLR,SCT,0.00,0.0,WeatherDisplay:10.37,2014-07-11 12:01:00,
2014-07-11 05:06:00,60.8,52.8,29.88,ESE,117,2.3,2.3,75,0.00,CLR,SCT,0.00,0.0,WeatherDisplay:10.37,2014-07-11 12:06:00,
2014-07-11 05:11:00,61.0,53.0,29.88,ESE,117,2.3,2.3,75,0.00,CLR,SCT,0.00,0.0,WeatherDisplay:10.37,2014-07-11 12:11:00,
2014-07-11 05:16:00,60.9,52.9,29.88,ESE,117,1.1,0.0,75,0.00,CLR,SCT,0.00,0.0,WeatherDisplay:10.37,2014-07-11 12:16:00,
2014-07-11 05:21:00,60.8,52.5,29.88,ESE,117,0.0,0.0,74,0.00,CLR,SCT,0.00,0.0,WeatherDisplay:10.37,2014-07-11 12:21:00,
2014-07-11 05:26:00,60.8,52.1,29.88,ESE,117,1.1,1.1,73,0.00,CLR,SCT,0.00,0.0,WeatherDisplay:10.37,2014-07-11 12:26:00,
2014-07-11 05:31:00,60.9,52.2,29.88,ESE,117,0.0,0.0,73,0.00,CLR,SCT,0.00,0.0,WeatherDisplay:10.37,2014-07-11 12:31:00,
2014-07-11 05:36:00,61.0,52.7,29.88,ESE,117,0.0,0.0,74,0.00,CLR,SCT,0.00,0.0,WeatherDisplay:10.37,2014-07-11 12:36:00,
2014-07-11 05:41:00,60.9,51.4,29.88,ESE,117,0.0,0.0,71,0.00,CLR,SCT,0.00,0.0,WeatherDisplay:10.37,2014-07-11 12:41:00,
2014-07-11 05:46:00,61.0,51.9,29.88,ESE,117,1.1,0.0,72,0.00,CLR,SCT,0.00,0.0,WeatherDisplay:10.37,2014-07-11 12:46:00,
2014-07-11 05:51:00,61.1,52.0,29.88,ESE,117,1.1,1.1,72,0.00,CLR,SCT,0.00,0.0,WeatherDisplay:10.37,2014-07-11 12:51:00,
2014-07-11 05:56:00,61.2,51.7,29.88,ESE,117,1.1,1.1,71,0.00,CLR,SCT,0.00,0.0,WeatherDisplay:10.37,2014-07-11 12:56:00,
2014-07-11 06:01:00,61.3,51.4,29.88,ESE,117,0.0,0.0,70,0.00,CLR,SCT,0.00,0.0,WeatherDisplay:10.37,2014-07-11 13:01:00,
2014-07-11 06:06:00,61.4,50.7,29.88,ESE,117,0.0,0.0,68,0.00,CLR,SCT,0.00,0.0,WeatherDisplay:10.37,2014-07-11 13:06:00,
2014-07-11 06:11:00,61.3,51.4,29.89,ESE,117,0.0,0.0,70,0.00,CLR,SCT,0.00,0.0,WeatherDisplay:10.37,2014-07-11 13:11:00,
2014-07-11 06:16:00,61.4,51.5,29.89,NE,46,0.0,0.0,70,0.00,CLR,SCT,0.00,0.0,WeatherDisplay:10.37,2014-07-11 13:16:00,
2014-07-11 06:21:00,61.3,51.0,29.89,NE,46,0.0,0.0,69,0.00,FEW,SCT,0.00,0.0,WeatherDisplay:10.37,2014-07-11 13:21:00,
2014-07-11 06:26:00,61.3,51.4,29.89,NE,46,1.1,1.1,70,0.00,FEW,SCT,0.00,0.0,WeatherDisplay:10.37,2014-07-11 13:26:00,
2014-07-11 06:31:00,61.3,51.4,29.89,NE,46,0.0,0.0,70,0.00,FEW,SCT,0.00,0.0,WeatherDisplay:10.37,2014-07-11 13:31:00,
2014-07-11 06:36:00,61.2,51.7,29.89,NE,46,1.1,0.0,71,0.00,FEW,SCT,0.00,0.0,WeatherDisplay:10.37,2014-07-11 13:36:00,
2014-07-11 06:41:00,61.1,51.6,29.89,NE,46,0.0,0.0,71,0.00,FEW,SCT,0.00,0.0,WeatherDisplay:10.37,2014-07-11 13:41:00,
2014-07-11 06:46:00,61.0,51.9,29.89,NE,46,0.0,0.0,72,0.00,FEW,SCT,0.00,0.0,WeatherDisplay:10.37,2014-07-11 13:46:00,
2014-07-11 06:51:00,60.9,51.8,29.89,NE,46,0.0,0.0,72,0.00,FEW,SCT,0.00,0.0,WeatherDisplay:10.37,2014-07-11 13:51:00,
2014-07-11 06:56:00,60.9,52.6,29.89,NE,46,2.3,2.3,74,0.00,FEW,SCT,0.00,0.0,WeatherDisplay:10.37,2014-07-11 13:56:00,
2014-07-11 07:01:00,60.8,52.5,29.89,NE,46,0.0,0.0,74,0.00,CLR,SCT,0.00,0.0,WeatherDisplay:10.37,2014-07-11 14:01:00,
2014-07-11 07:06:00,60.8,52.5,29.89,NE,46,1.1,1.1,74,0.00,CLR,SCT,0.00,0.0,WeatherDisplay:10.37,2014-07-11 14:06:00,
2014-07-11 07:11:00,60.9,52.9,29.89,NE,46,0.0,0.0,75,0.00,CLR,SCT,0.00,0.0,WeatherDisplay:10.37,2014-07-11 14:11:00,
2014-07-11 07:16:00,61.1,53.1,29.89,NE,46,0.0,0.0,75,0.00,CLR,SCT,0.00,0.0,WeatherDisplay:10.37,2014-07-11 14:16:00,
2014-07-11 07:21:00,61.3,53.7,29.89,NE,46,1.1,0.0,76,0.00,CLR,SCT,0.00,0.0,WeatherDisplay:10.37,2014-07-11 14:21:00,
2014-07-11 07:26:00,61.5,52.8,29.89,NE,46,1.1,0.0,73,0.00,CLR,SCT,0.00,0.0,WeatherDisplay:10.37,2014-07-11 14:26:00,
2014-07-11 07:31:00,61.9,53.9,29.89,NE,46,1.1,0.0,75,0.00,CLR,SCT,0.00,0.0,WeatherDisplay:10.37,2014-07-11 14:31:00,
2014-07-11 07:36:00,62.5,54.1,29.89,NNW,346,1.1,0.0,74,0.00,CLR,SCT,0.00,0.0,WeatherDisplay:10.37,2014-07-11 14:36:00,
2014-07-11 07:41:00,62.7,55.4,29.90,NNW,346,1.1,0.0,77,0.00,CLR,SCT,0.00,0.0,WeatherDisplay:10.37,2014-07-11 14:41:00,
2014-07-11 07:46:00,63.0,55.7,29.90,NNW,346,0.0,0.0,77,0.00,CLR,SCT,0.00,0.0,WeatherDisplay:10.37,2014-07-11 14:46:00,
2014-07-11 07:51:00,63.2,56.2,29.90,SE,142,0.0,0.0,78,0.00,CLR,SCT,0.00,0.0,WeatherDisplay:10.37,2014-07-11 14:51:00,
2014-07-11 07:56:00,63.3,56.3,29.90,SE,142,0.0,0.0,78,0.00,CLR,SCT,0.00,0.0,WeatherDisplay:10.37,2014-07-11 14:56:00,
2014-07-11 08:01:00,63.5,56.5,29.90,SE,142,1.1,0.0,78,0.00,CLR,SCT,0.00,0.0,WeatherDisplay:10.37,2014-07-11 15:01:00,
2014-07-11 08:06:00,63.7,56.4,29.90,SE,142,1.1,0.0,77,0.00,CLR,SCT,0.00,0.0,WeatherDisplay:10.37,2014-07-11 15:06:00,
2014-07-11 08:11:00,63.9,56.2,29.90,SE,142,0.0,0.0,76,0.00,CLR,SCT,0.00,0.0,WeatherDisplay:10.37,2014-07-11 15:11:00,
2014-07-11 08:16:00,64.1,56.7,29.90,SE,142,2.3,2.3,77,0.00,CLR,SCT,0.00,0.0,WeatherDisplay:10.37,2014-07-11 15:16:00,
2014-07-11 08:21:00,64.4,57.0,29.90,SE,142,2.3,2.3,77,0.00,CLR,SCT,0.00,0.0,WeatherDisplay:10.37,2014-07-11 15:21:00,
2014-07-11 08:26:00,64.8,56.7,29.90,SE,142,1.1,0.0,75,0.00,CLR,SCT,0.00,0.0,WeatherDisplay:10.37,2014-07-11 15:26:00,
2014-07-11 08:31:00,65.1,57.0,29.90,South,175,0.0,0.0,75,0.00,CLR,SCT,0.00,0.0,WeatherDisplay:10.37,2014-07-11 15:31:00,
2014-07-11 08:36:00,65.4,56.5,29.90,South,175,0.0,0.0,73,0.00,CLR,SCT,0.00,0.0,WeatherDisplay:10.37,2014-07-11 15:36:00,
2014-07-11 08:41:00,65.7,57.2,29.90,South,175,0.0,0.0,74,0.00,CLR,SCT,0.00,0.0,WeatherDisplay:10.37,2014-07-11 15:41:00,
2014-07-11 08:46:00,66.0,53.9,29.90,South,175,0.0,0.0,65,0.00,CLR,SCT,0.00,0.0,WeatherDisplay:10.37,2014-07-11 15:46:00,
2014-07-11 08:51:00,66.4,54.7,29.90,South,175,0.0,0.0,66,0.00,CLR,SCT,0.00,0.0,WeatherDisplay:10.37,2014-07-11 15:51:00,
2014-07-11 08:56:00,66.8,54.2,29.90,South,175,0.0,0.0,64,0.00,CLR,SCT,0.00,0.0,WeatherDisplay:10.37,2014-07-11 15:56:00,
2014-07-11 09:01:00,67.3,54.7,29.91,SSW,204,0.0,0.0,64,0.00,CLR,SCT,0.00,0.0,WeatherDisplay:10.37,2014-07-11 16:01:00,
2014-07-11 09:06:00,67.9,54.4,29.91,SSW,204,1.1,0.0,62,0.00,CLR,SCT,0.00,0.0,WeatherDisplay:10.37,2014-07-11 16:06:00,
2014-07-11 09:11:00,68.5,54.1,29.91,SSW,204,1.1,1.1,60,0.00,CLR,SCT,0.00,0.0,WeatherDisplay:10.37,2014-07-11 16:11:00,
2014-07-11 09:16:00,69.2,52.8,29.91,East,90,0.0,0.0,56,0.00,CLR,SCT,0.00,0.0,WeatherDisplay:10.37,2014-07-11 16:16:00,
2014-07-11 09:21:00,70.0,51.6,29.91,East,90,0.0,0.0,52,0.00,CLR,SCT,0.00,0.0,WeatherDisplay:10.37,2014-07-11 16:21:00,
2014-07-11 09:26:00,70.9,52.4,29.91,East,90,0.0,0.0,52,0.00,CLR,SCT,0.00,0.0,WeatherDisplay:10.37,2014-07-11 16:26:00,
2014-07-11 09:31:00,72.0,48.9,29.91,East,90,0.0,0.0,44,0.00,CLR,SCT,0.00,0.0,WeatherDisplay:10.37,2014-07-11 16:31:00,
2014-07-11 09:36:00,73.3,50.1,29.91,East,83,2.3,2.3,44,0.00,CLR,SCT,0.00,0.0,WeatherDisplay:10.37,2014-07-11 16:36:00,
2014-07-11 09:41:00,74.3,55.0,29.91,NNE,26,2.3,2.3,51,0.00,CLR,SCT,0.00,0.0,WeatherDisplay:10.37,2014-07-11 16:41:00,
2014-07-11 09:46:00,74.3,55.0,29.91,ENE,58,2.3,2.3,51,0.00,CLR,SCT,0.00,0.0,WeatherDisplay:10.37,2014-07-11 16:46:00,
2014-07-11 09:51:00,74.3,51.6,29.91,ENE,58,1.1,1.1,45,0.00,CLR,SCT,0.00,0.0,WeatherDisplay:10.37,2014-07-11 16:51:00,
2014-07-11 09:56:00,74.5,55.7,29.91,ENE,58,1.1,0.0,52,0.00,CLR,SCT,0.00,0.0,WeatherDisplay:10.37,2014-07-11 16:56:00,
2014-07-11 10:01:00,74.7,57.5,29.91,ENE,58,1.1,1.1,55,0.00,CLR,SCT,0.00,0.0,WeatherDisplay:10.37,2014-07-11 17:01:00,
2014-07-11 10:06:00,74.5,50.5,29.91,East,80,3.5,3.5,43,0.00,CLR,SCT,0.00,0.0,WeatherDisplay:10.37,2014-07-11 17:06:00,
2014-07-11 10:11:00,74.7,50.7,29.91,ESE,104,2.3,2.3,43,0.00,CLR,SCT,0.00,0.0,WeatherDisplay:10.37,2014-07-11 17:11:00,
2014-07-11 10:16:00,75.3,51.3,29.91,ESE,123,4.0,4.0,43,0.00,CLR,SCT,0.00,0.0,WeatherDisplay:10.37,2014-07-11 17:16:00,
2014-07-11 10:21:00,75.5,51.4,29.91,SE,130,3.5,3.5,43,0.00,CLR,SCT,0.00,0.0,WeatherDisplay:10.37,2014-07-11 17:21:00,
2014-07-11 10:26:00,75.5,50.1,29.92,SE,134,3.5,3.5,41,0.00,CLR,SCT,0.00,0.0,WeatherDisplay:10.37,2014-07-11 17:26:00,
2014-07-11 10:31:00,75.5,51.4,29.92,SE,128,4.0,4.0,43,0.00,CLR,SCT,0.00,0.0,WeatherDisplay:10.37,2014-07-11 17:31:00,
2014-07-11 10:36:00,75.3,51.9,29.92,SE,128,3.5,3.5,44,0.00,CLR,SCT,0.00,0.0,WeatherDisplay:10.37,2014-07-11 17:36:00,
2014-07-11 10:41:00,75.1,52.3,29.92,ESE,123,2.3,2.3,45,0.00,CLR,SCT,0.00,0.0,WeatherDisplay:10.37,2014-07-11 17:41:00,
2014-07-11 10:46:00,75.2,51.8,29.92,SE,138,3.5,3.5,44,0.00,CLR,SCT,0.00,0.0,WeatherDisplay:10.37,2014-07-11 17:46:00,
2014-07-11 10:51:00,75.3,51.9,29.92,SE,127,6.9,6.9,44,0.00,CLR,SCT,0.00,0.0,WeatherDisplay:10.37,2014-07-11 17:51:00,
2014-07-11 10:56:00,75.5,52.7,29.92,SE,128,2.3,2.3,45,0.00,CLR,SCT,0.00,0.0,WeatherDisplay:10.37,2014-07-11 17:56:00,
2014-07-11 11:01:00,75.8,52.9,29.92,SE,127,3.0,3.0,45,0.00,CLR,SCT,0.00,0.0,WeatherDisplay:10.37,2014-07-11 18:01:00,
2014-07-11 11:06:00,76.4,51.6,29.92,SSE,155,7.0,7.0,42,0.00,CLR,SCT,0.00,0.0,WeatherDisplay:10.37,2014-07-11 18:06:00,
2014-07-11 11:11:00,76.8,52.0,29.92,SE,128,4.6,4.6,42,0.00,CLR,SCT,0.00,0.0,WeatherDisplay:10.37,2014-07-11 18:11:00,
2014-07-11 11:16:00,77.8,52.9,29.93,NW,325,3.5,3.5,42,0.00,CLR,SCT,0.00,0.0,WeatherDisplay:10.37,2014-07-11 18:16:00,
2014-07-11 11:21:00,78.4,52.7,29.92,South,182,3.5,3.5,41,0.00,CLR,SCT,0.00,0.0,WeatherDisplay:10.37,2014-07-11 18:21:00,
2014-07-11 11:26:00,78.9,53.9,29.92,SSE,164,6.9,6.9,42,0.00,CLR,SCT,0.00,0.0,WeatherDisplay:10.37,2014-07-11 18:26:00,
2014-07-11 11:31:00,79.0,53.9,29.92,SE,140,8.1,8.1,42,0.00,CLR,SCT,0.00,0.0,WeatherDisplay:10.37,2014-07-11 18:31:00,
2014-07-11 11:36:00,78.4,54.0,29.92,SE,131,11.5,11.5,43,0.00,CLR,SCT,0.00,0.0,WeatherDisplay:10.37,2014-07-11 18:36:00,
2014-07-11 11:41:00,77.9,54.8,29.93,ESE,123,6.9,6.9,45,0.00,CLR,SCT,0.00,0.0,WeatherDisplay:10.37,2014-07-11 18:41:00,
2014-07-11 11:46:00,78.3,54.6,29.93,NW,322,4.0,4.0,44,0.00,CLR,SCT,0.00,0.0,WeatherDisplay:10.37,2014-07-11 18:46:00,
2014-07-11 11:51:00,78.6,52.9,29.93,SE,124,9.2,9.2,41,0.00,CLR,SCT,0.00,0.0,WeatherDisplay:10.37,2014-07-11 18:51:00,
2014-07-11 11:56:00,78.5,52.8,29.93,NW,322,3.5,3.5,41,0.00,CLR,SCT,0.00,0.0,WeatherDisplay:10.37,2014-07-11 18:56:00,
2014-07-11 12:01:00,78.5,52.8,29.93,South,169,4.0,4.0,41,0.00,CLR,SCT,0.00,0.0,WeatherDisplay:10.37,2014-07-11 19:01:00,
2014-07-11 12:06:00,78.9,52.5,29.93,SE,137,4.0,4.0,40,0.00,CLR,SCT,0.00,0.0,WeatherDisplay:10.37,2014-07-11 19:06:00,
2014-07-11 12:11:00,78.9,53.9,29.93,ESE,108,5.8,5.8,42,0.00,CLR,SCT,0.00,0.0,WeatherDisplay:10.37,2014-07-11 19:11:00,
2014-07-11 12:16:00,79.2,55.4,29.93,NNE,28,3.5,3.5,44,0.00,CLR,SCT,0.00,0.0,WeatherDisplay:10.37,2014-07-11 19:16:00,
2014-07-11 12:21:00,79.4,55.0,29.94,ESE,123,3.5,3.5,43,0.00,CLR,SCT,0.00,0.0,WeatherDisplay:10.37,2014-07-11 19:21:00,
2014-07-11 12:26:00,79.2,52.8,29.94,SE,126,8.1,8.1,40,0.00,CLR,SCT,0.00,0.0,WeatherDisplay:10.37,2014-07-11 19:26:00,
2014-07-11 12:31:00,78.5,52.2,29.93,NW,311,4.6,4.6,40,0.00,CLR,SCT,0.00,0.0,WeatherDisplay:10.37,2014-07-11 19:31:00,
2014-07-11 12:36:00,78.0,52.4,29.94,SSE,157,10.4,10.4,41,0.00,CLR,SCT,0.00,0.0,WeatherDisplay:10.37,2014-07-11 19:36:00,
2014-07-11 12:41:00,77.6,53.3,29.94,SSE,155,3.5,3.5,43,0.00,CLR,SCT,0.00,0.0,WeatherDisplay:10.37,2014-07-11 19:41:00,
2014-07-11 12:46:00,77.4,53.1,29.94,SE,141,7.0,7.0,43,0.00,CLR,SCT,0.00,0.0,WeatherDisplay:10.37,2014-07-11 19:46:00,
2014-07-11 12:51:00,77.1,53.5,29.94,SE,127,3.5,3.5,44,0.00,CLR,SCT,0.00,0.0,WeatherDisplay:10.37,2014-07-11 19:51:00,
2014-07-11 12:56:00,77.2,54.2,29.94,SE,134,9.2,9.2,45,0.00,CLR,SCT,0.00,0.0,WeatherDisplay:10.37,2014-07-11 19:56:00,
2014-07-11 13:01:00,77.5,53.2,29.94,SE,130,9.2,9.2,43,0.00,CLR,SCT,0.00,0.0,WeatherDisplay:10.37,2014-07-11 20:01:00,
2014-07-11 13:06:00,77.1,53.5,29.94,SE,126,3.5,3.5,44,0.00,CLR,SCT,0.00,0.0,WeatherDisplay:10.37,2014-07-11 20:06:00,
2014-07-11 13:11:00,76.8,53.2,29.94,SE,136,4.0,4.0,44,0.00,CLR,SCT,0.00,0.0,WeatherDisplay:10.37,2014-07-11 20:11:00,
2014-07-11 13:16:00,76.8,53.8,29.94,ESE,123,3.5,3.5,45,0.00,CLR,SCT,0.00,0.0,WeatherDisplay:10.37,2014-07-11 20:16:00,
2014-07-11 13:21:00,77.3,53.7,29.94,SE,143,4.6,4.6,44,0.00,CLR,SCT,0.00,0.0,WeatherDisplay:10.37,2014-07-11 20:21:00,
2014-07-11 13:26:00,77.6,54.0,29.94,SE,140,3.5,3.5,44,0.00,CLR,SCT,0.00,0.0,WeatherDisplay:10.37,2014-07-11 20:26:00,
2014-07-11 13:31:00,78.5,54.8,29.93,SSE,166,3.5,3.5,44,0.00,CLR,SCT,0.00,0.0,WeatherDisplay:10.37,2014-07-11 20:31:00,
2014-07-11 13:36:00,78.9,52.5,29.93,SE,130,5.0,5.0,40,0.00,CLR,SCT,0.00,0.0,WeatherDisplay:10.37,2014-07-11 20:36:00,
2014-07-11 13:41:00,79.0,52.6,29.93,NW,323,3.5,3.5,40,0.00,FEW,SCT,0.00,0.0,WeatherDisplay:10.37,2014-07-11 20:41:00,
2014-07-11 13:46:00,79.2,52.1,29.93,WSW,244,3.5,3.5,39,0.00,FEW,SCT,0.00,0.0,WeatherDisplay:10.37,2014-07-11 20:46:00,
2014-07-11 13:51:00,79.4,52.3,29.94,NW,325,2.3,2.3,39,0.00,FEW,SCT,0.00,0.0,WeatherDisplay:10.37,2014-07-11 20:51:00,
2014-07-11 13:56:00,79.9,52.7,29.94,NW,323,3.5,3.5,39,0.00,FEW,SCT,0.00,0.0,WeatherDisplay:10.37,2014-07-11 20:56:00,
2014-07-11 14:01:00,79.9,52.0,29.94,NW,317,4.0,4.0,38,0.00,FEW,SCT,0.00,0.0,WeatherDisplay:10.37,2014-07-11 21:01:00,
2014-07-11 14:06:00,80.0,51.4,29.94,SSE,165,8.1,8.1,37,0.00,FEW,SCT,0.00,0.0,WeatherDisplay:10.37,2014-07-11 21:06:00,
2014-07-11 14:11:00,79.9,49.8,29.94,NW,319,5.8,5.8,35,0.00,FEW,SCT,0.00,0.0,WeatherDisplay:10.37,2014-07-11 21:11:00,
2014-07-11 14:16:00,79.7,49.6,29.94,NW,313,3.5,3.5,35,0.00,FEW,SCT,0.00,0.0,WeatherDisplay:10.37,2014-07-11 21:16:00,
2014-07-11 14:21:00,80.0,51.4,29.94,SE,138,3.5,3.5,37,0.00,CLR,SCT,0.00,0.0,WeatherDisplay:10.37,2014-07-11 21:21:00,
2014-07-11 14:26:00,80.3,50.9,29.94,SE,129,6.9,6.9,36,0.00,CLR,SCT,0.00,0.0,WeatherDisplay:10.37,2014-07-11 21:26:00,
2014-07-11 14:31:00,80.4,50.2,29.94,SE,130,5.8,5.8,35,0.00,CLR,SCT,0.00,0.0,WeatherDisplay:10.37,2014-07-11 21:31:00,
2014-07-11 14:36:00,80.8,50.6,29.93,NW,310,3.5,3.5,35,0.00,CLR,SCT,0.00,0.0,WeatherDisplay:10.37,2014-07-11 21:36:00,
2014-07-11 14:41:00,81.0,51.5,29.93,SSW,198,5.0,5.0,36,0.00,CLR,SCT,0.00,0.0,WeatherDisplay:10.37,2014-07-11 21:41:00,
2014-07-11 14:46:00,80.9,49.9,29.93,NW,315,4.6,4.6,34,0.00,CLR,SCT,0.00,0.0,WeatherDisplay:10.37,2014-07-11 21:46:00,
2014-07-11 14:51:00,80.5,50.3,29.94,East,82,3.5,3.5,35,0.00,CLR,SCT,0.00,0.0,WeatherDisplay:10.37,2014-07-11 21:51:00,
2014-07-11 14:56:00,80.8,49.0,29.93,NW,311,3.0,3.0,33,0.00,CLR,SCT,0.00,0.0,WeatherDisplay:10.37,2014-07-11 21:56:00,
2014-07-11 15:01:00,80.9,48.3,29.93,WNW,302,3.5,3.5,32,0.00,CLR,SCT,0.00,0.0,WeatherDisplay:10.37,2014-07-11 22:01:00,
2014-07-11 15:06:00,81.2,48.5,29.93,NNW,346,3.5,3.5,32,0.00,CLR,SCT,0.00,0.0,WeatherDisplay:10.37,2014-07-11 22:06:00,
2014-07-11 15:11:00,81.5,47.1,29.93,NW,314,6.0,6.0,30,0.00,CLR,SCT,0.00,0.0,WeatherDisplay:10.37,2014-07-11 22:11:00,
2014-07-11 15:16:00,80.9,47.4,29.93,NW,319,3.5,3.5,31,0.00,CLR,SCT,0.00,0.0,WeatherDisplay:10.37,2014-07-11 22:16:00,
2014-07-11 15:21:00,80.8,48.2,29.93,NW,321,6.9,6.9,32,0.00,CLR,SCT,0.00,0.0,WeatherDisplay:10.37,2014-07-11 22:21:00,
2014-07-11 15:26:00,80.9,47.4,29.93,NW,320,4.6,4.6,31,0.00,CLR,SCT,0.00,0.0,WeatherDisplay:10.37,2014-07-11 22:26:00,
2014-07-11 15:31:00,80.7,46.4,29.93,SE,132,8.1,8.1,30,0.00,CLR,SCT,0.00,0.0,WeatherDisplay:10.37,2014-07-11 22:31:00,
2014-07-11 15:36:00,81.0,47.5,29.93,SE,132,4.0,4.0,31,0.00,CLR,SCT,0.00,0.0,WeatherDisplay:10.37,2014-07-11 22:36:00,
2014-07-11 15:41:00,81.2,47.7,29.93,SE,126,9.2,9.2,31,0.00,CLR,SCT,0.00,0.0,WeatherDisplay:10.37,2014-07-11 22:41:00,
2014-07-11 15:46:00,81.6,49.7,29.93,ESE,123,3.5,3.5,33,0.00,CLR,SCT,0.00,0.0,WeatherDisplay:10.37,2014-07-11 22:46:00,
2014-07-11 15:51:00,81.6,47.2,29.94,South,177,2.3,2.3,30,0.00,CLR,SCT,0.00,0.0,WeatherDisplay:10.37,2014-07-11 22:51:00,
2014-07-11 15:56:00,81.6,48.0,29.94,South,188,4.0,4.0,31,0.00,CLR,SCT,0.00,0.0,WeatherDisplay:10.37,2014-07-11 22:56:00,
2014-07-11 16:01:00,81.3,48.6,29.94,SSE,165,1.1,1.1,32,0.00,CLR,SCT,0.00,0.0,WeatherDisplay:10.37,2014-07-11 23:01:00,
2014-07-11 16:06:00,81.1,46.7,29.94,SE,128,3.5,3.5,30,0.00,CLR,SCT,0.00,0.0,WeatherDisplay:10.37,2014-07-11 23:06:00,
2014-07-11 16:11:00,81.0,47.5,29.94,ENE,69,3.5,3.5,31,0.00,CLR,SCT,0.00,0.0,WeatherDisplay:10.37,2014-07-11 23:11:00,
2014-07-11 16:16:00,80.6,47.2,29.93,NW,316,3.5,3.5,31,0.00,CLR,SCT,0.00,0.0,WeatherDisplay:10.37,2014-07-11 23:16:00,
2014-07-11 16:18:00,80.4,45.2,29.93,NW,308,3.5,3.5,29,0.00,CLR,SCT,0.00,0.0,WeatherDisplay:10.37,2014-07-11 23:18:00,
2014-07-11 16:23:00,80.1,45.0,29.93,NW,316,3.5,3.5,29,0.00,CLR,SCT,0.00,0.0,WeatherDisplay:10.37,2014-07-11 23:23:00,
2014-07-11 16:28:00,80.0,45.8,29.93,NNW,335,3.5,3.5,30,0.00,CLR,SCT,0.00,0.0,WeatherDisplay:10.37,2014-07-11 23:28:00,
2014-07-11 16:33:00,79.8,47.3,29.93,East,99,3.5,3.5,32,0.00,CLR,SCT,0.00,0.0,WeatherDisplay:10.37,2014-07-11 23:33:00,
2014-07-11 16:38:00,80.1,47.6,29.93,SE,129,3.5,3.5,32,0.00,CLR,SCT,0.00,0.0,WeatherDisplay:10.37,2014-07-11 23:38:00,
2014-07-11 16:43:00,80.1,46.7,29.93,SE,125,2.3,2.3,31,0.00,CLR,SCT,0.00,0.0,WeatherDisplay:10.37,2014-07-11 23:43:00,
2014-07-11 16:48:00,80.1,46.7,29.93,NNW,343,3.5,3.5,31,0.00,CLR,SCT,0.00,0.0,WeatherDisplay:10.37,2014-07-11 23:48:00,
2014-07-11 16:53:00,80.0,46.6,29.93,NW,314,3.5,3.5,31,0.00,CLR,SCT,0.00,0.0,WeatherDisplay:10.37,2014-07-11 23:53:00,
2014-07-11 16:58:00,80.1,48.4,29.93,SE,132,3.5,3.5,33,0.00,CLR,SCT,0.00,0.0,WeatherDisplay:10.37,2014-07-11 23:58:00,
2014-07-11 17:03:00,80.1,47.6,29.93,SE,146,4.6,4.6,32,0.00,CLR,SCT,0.00,0.0,WeatherDisplay:10.37,2014-07-12 00:03:00,
2014-07-11 17:08:00,80.0,47.5,29.94,SE,127,4.6,4.6,32,0.00,CLR,SCT,0.00,0.0,WeatherDisplay:10.37,2014-07-12 00:08:00,
2014-07-11 17:13:00,79.8,47.3,29.94,ESE,105,6.9,6.9,32,0.00,CLR,SCT,0.00,0.0,WeatherDisplay:10.37,2014-07-12 00:13:00,
2014-07-11 17:18:00,79.6,48.0,29.94,NW,317,3.5,3.5,33,0.00,CLR,SCT,0.00,0.0,WeatherDisplay:10.37,2014-07-12 00:18:00,
2014-07-11 17:23:00,79.3,47.7,29.94,NW,314,3.5,3.5,33,0.00,CLR,SCT,0.00,0.0,WeatherDisplay:10.37,2014-07-12 00:23:00,
2014-07-11 17:28:00,79.1,48.3,29.94,NNW,328,3.5,3.5,34,0.00,CLR,SCT,0.00,0.0,WeatherDisplay:10.37,2014-07-12 00:28:00,
2014-07-11 17:33:00,78.8,47.3,29.94,SE,143,9.2,9.2,33,0.00,CLR,SCT,0.00,0.0,WeatherDisplay:10.37,2014-07-12 00:33:00,
2014-07-11 17:38:00,78.6,48.7,29.94,NNW,329,5.0,5.0,35,0.00,CLR,SCT,0.00,0.0,WeatherDisplay:10.37,2014-07-12 00:38:00,
2014-07-11 17:43:00,78.5,48.6,29.94,NW,321,3.5,3.5,35,0.00,CLR,SCT,0.00,0.0,WeatherDisplay:10.37,2014-07-12 00:43:00,
2014-07-11 17:48:00,78.2,47.5,29.94,SE,129,6.9,6.9,34,0.00,CLR,SCT,0.00,0.0,WeatherDisplay:10.37,2014-07-12 00:48:00,
2014-07-11 17:53:00,78.0,48.1,29.94,SSE,156,2.3,2.3,35,0.00,CLR,SCT,0.00,0.0,WeatherDisplay:10.37,2014-07-12 00:53:00,
2014-07-11 17:58:00,78.0,48.1,29.94,ENE,64,1.1,1.1,35,0.00,CLR,SCT,0.00,0.0,WeatherDisplay:10.37,2014-07-12 00:58:00,
2014-07-11 18:03:00,78.0,48.9,29.94,ESE,105,6.0,6.0,36,0.00,CLR,SCT,0.00,0.0,WeatherDisplay:10.37,2014-07-12 01:03:00,
2014-07-11 18:08:00,78.0,48.1,29.94,ESE,120,2.3,2.3,35,0.00,CLR,SCT,0.00,0.0,WeatherDisplay:10.37,2014-07-12 01:08:00,
2014-07-11 18:13:00,77.8,49.4,29.94,SSW,192,2.3,2.3,37,0.00,CLR,SCT,0.00,0.0,WeatherDisplay:10.37,2014-07-12 01:13:00,
2014-07-11 18:18:00,77.7,48.6,29.94,ESE,120,3.5,3.5,36,0.00,CLR,SCT,0.00,0.0,WeatherDisplay:10.37,2014-07-12 01:18:00,
2014-07-11 18:23:00,77.7,50.1,29.94,SE,124,1.1,1.1,38,0.00,CLR,SCT,0.00,0.0,WeatherDisplay:10.37,2014-07-12 01:23:00,
2014-07-11 18:28:00,77.4,48.3,29.94,ESE,122,2.3,2.3,36,0.00,CLR,SCT,0.00,0.0,WeatherDisplay:10.37,2014-07-12 01:28:00,
2014-07-11 18:33:00,77.3,49.7,29.94,SE,146,3.5,3.5,38,0.00,CLR,SCT,0.00,0.0,WeatherDisplay:10.37,2014-07-12 01:33:00,
2014-07-11 18:38:00,77.1,50.9,29.94,ESE,118,4.0,4.0,40,0.00,CLR,SCT,0.00,0.0,WeatherDisplay:10.37,2014-07-12 01:38:00,
2014-07-11 18:43:00,76.9,49.4,29.94,ESE,109,4.6,4.6,38,0.00,CLR,SCT,0.00,0.0,WeatherDisplay:10.37,2014-07-12 01:43:00,
2014-07-11 18:48:00,76.5,49.0,29.94,ESE,121,2.3,2.3,38,0.00,CLR,SCT,0.00,0.0,WeatherDisplay:10.37,2014-07-12 01:48:00,
2014-07-11 18:53:00,76.3,50.2,29.94,ESE,115,1.1,1.1,40,0.00,CLR,SCT,0.00,0.0,WeatherDisplay:10.37,2014-07-12 01:53:00,
2014-07-11 18:58:00,76.0,51.9,29.95,SE,140,4.0,4.0,43,0.00,CLR,SCT,0.00,0.0,WeatherDisplay:10.37,2014-07-12 01:58:00,
2014-07-11 19:03:00,75.8,49.1,29.95,ESE,119,1.1,1.1,39,0.00,CLR,SCT,0.00,0.0,WeatherDisplay:10.37,2014-07-12 02:03:00,
2014-07-11 19:08:00,75.5,48.8,29.95,SE,128,4.0,4.0,39,0.00,CLR,SCT,0.00,0.0,WeatherDisplay:10.37,2014-07-12 02:08:00,
2014-07-11 19:13:00,75.5,51.4,29.95,SE,128,2.3,2.3,43,0.00,CLR,SCT,0.00,0.0,WeatherDisplay:10.37,2014-07-12 02:13:00,
2014-07-11 19:18:00,75.0,49.7,29.95,ENE,66,1.1,1.1,41,0.00,CLR,SCT,0.00,0.0,WeatherDisplay:10.37,2014-07-12 02:18:00,
2014-07-11 19:23:00,74.7,51.9,29.95,East,80,3.0,3.0,45,0.00,CLR,SCT,0.00,0.0,WeatherDisplay:10.37,2014-07-12 02:23:00,
2014-07-11 19:28:00,74.1,52.0,29.96,East,83,2.3,2.3,46,0.00,CLR,SCT,0.00,0.0,WeatherDisplay:10.37,2014-07-12 02:28:00,
2014-07-11 19:33:00,73.6,52.1,29.96,East,90,3.5,3.5,47,0.00,CLR,SCT,0.00,0.0,WeatherDisplay:10.37,2014-07-12 02:33:00,